Sierra Nevada Aquatic Research Lab (SNARL) Reserve, Santa Monica Mtns, California Weather observations

Data are for 10 minute period ending at time listed.
 Day   Time   Solar   Ave.   Ave.  Ave.  Vector  Max.   Baro.   Total    
  of    of     Rad.   Air    Rel.  Wind   Wind   Wind  Press.  Precip.   
Year   Day            Temp.  Hum.  Speed  Dir.   Gust                    
2014   (PST)  Kw/m2    F      %     mph   deg.    mph    mb.     in.     
-------------------------------------------------------------------------
 258   11:30   0.72   76.5    26    4.6    65    14.9   788.2    0.00 
 258   11:40   0.41   76.6    26    5.1    86     9.6   788.1    0.00 
 258   11:50   0.41   76.3    26    5.8    85    14.8   788.1    0.00 
 258   12:00   1.07   77.5    25    4.7    38    12.3   788.0    0.00 
 258   12:10   1.04   79.3    22    5.5   306    13.6   787.8    0.00 
 258   12:20   0.75   80.0    21    9.6   242    20.6   787.7    0.00 
 258   12:30   0.51   78.2    22    9.9   246    19.1   787.6    0.00 
 258   12:40   0.77   79.5    21   10.2   241    18.1   787.6    0.00 
 258   12:50   0.75   78.9    21   13.3   240    21.2   787.5    0.00 
 258   13:00   0.89   80.6    20   13.6   237    21.4   787.4    0.00 
 258   13:10   0.87   80.7    21    9.8   256    19.3   787.3    0.00 
 258   13:20   0.87   80.3    20   12.8   241    21.2   787.2    0.00 
 258   13:30   0.84   80.8    20   13.0   243    23.3   787.2    0.00 
 258   13:40   0.58   80.4    20   12.4   236    22.7   787.1    0.00 
 258   13:50   0.17   77.5    22    9.9   221    21.7   787.0    0.00 
 258   14:00   0.50   78.5    22   11.6   239    20.6   787.0    0.00 
 258   14:10   0.23   77.1    23   14.2   238    21.5   787.0    0.00 
 258   14:20   0.24   76.1    24   14.8   231    22.6   787.1    0.00 
 258   14:30   0.43   76.5    24   11.3   236    17.6   787.1    0.00 
 258   14:40   0.66   78.5    23   10.6   238    22.2   787.0    0.00 
 258   14:50   0.66   80.0    22   13.4   222    22.9   787.0    0.00 
 258   15:00   0.61   79.9    22    9.2   244    16.7   786.8    0.00 
 258   15:10   0.58   79.4    24    8.8   256    14.8   786.8    0.00 
 258   15:20   0.26   78.7    24    8.5   267    14.8   786.8    0.00 
 258   15:30   0.14   75.8    26   10.8   246    19.5   786.9    0.00 
 258   15:40   0.29   76.2    26   12.4   234    21.0   787.0    0.00 
 258   15:50   0.26   77.3    25    9.6   240    16.4   786.9    0.00 
 258   16:00   0.16   75.6    26   11.4   240    22.4   786.9    0.00 
 258   16:10   0.25   75.8    28    9.1   252    18.6   786.9    0.00 
 258   16:20   0.30   76.5    27   11.4   249    20.0   786.9    0.00 
 258   16:30   0.19   75.9    27   10.2   242    16.1   787.0    0.00 
 258   16:40   0.23   75.4    27   12.6   239    21.6   787.0    0.00 
 258   16:50   0.16   75.1    27   12.0   248    20.2   787.0    0.00 
 258   17:00   0.09   73.5    29   10.9   239    17.7   787.0    0.00 
 258   17:10   0.08   73.1    30   10.7   243    16.8   787.0    0.00 
 258   17:20   0.07   72.3    31   11.2   249    16.7   787.0    0.00 
 258   17:30   0.06   72.3    31   12.1   243    17.9   787.0    0.00 
 258   17:40   0.03   71.8    31   11.9   242    17.8   787.0    0.00 
 258   17:50   0.01   71.0    32   13.1   226    17.7   786.9    0.00 
 258   18:00   0.00   70.5    32   12.7   236    18.2   786.9    0.00 
 258   18:10   0.00   70.3    32   13.6   230    19.5   786.8    0.00 
 258   18:20   0.00   69.8    33   12.7   230    20.5   786.9    0.00 
 258   18:30   0.00   69.8    33   14.2   231    19.7   786.9    0.00 
 258   18:40   0.00   69.9    33   14.5   228    21.0   786.9    0.00 
 258   18:50   0.00   69.6    33   14.5   231    24.3   786.9    0.00 
 258   19:00   0.00   69.6    33   14.7   218    22.4   787.1    0.00 
 258   19:10   0.00   69.3    33   13.7   216    19.6   787.2    0.00 
 258   19:20   0.00   69.2    33   15.5   212    22.6   787.2    0.00 
 258   19:30   0.00   68.9    34   15.6   211    20.7   787.4    0.00 
 258   19:40   0.00   68.9    33   15.3   213    20.5   787.4    0.00 
 258   19:50   0.00   68.9    32   12.8   209    19.5   787.5    0.00 
 258   20:00   0.00   68.2    33    9.9   207    14.8   787.6    0.00 
 258   20:10   0.00   67.7    32    8.3   198    12.9   787.6    0.00 
 258   20:20   0.00   67.3    32   10.9   207    17.0   787.6    0.00 
 258   20:30   0.00   67.5    32    8.9   202    16.6   787.6    0.00 
 258   20:40   0.00   66.9    31    8.7   186    14.6   787.6    0.00 
 258   20:50   0.00   67.3    31    9.9   202    13.8   787.6    0.00 
 258   21:00   0.00   67.2    32    9.5   199    16.1   787.6    0.00 
 258   21:10   0.00   67.2    32    8.3   191    13.4   787.7    0.00 
 258   21:20   0.00   67.3    31    8.8   187    12.4   787.8    0.00 
 258   21:30   0.00   67.4    31    9.6   183    14.7   787.9    0.00 
 258   21:40   0.00   67.2    32    9.5   197    17.7   787.9    0.00 
 258   21:50   0.00   67.9    32   12.2   206    17.4   787.9    0.00 
 258   22:00   0.00   67.9    32   12.8   211    17.8   788.0    0.00 
 258   22:10   0.00   68.0    33   14.1   204    21.2   788.0    0.00 
 258   22:20   0.00   68.2    33   13.8   209    21.9   788.1    0.00 
 258   22:30   0.00   68.3    33   13.3   206    21.9   788.1    0.00 
 258   22:40   0.00   67.9    34   14.1   198    21.8   788.2    0.00 
 258   22:50   0.00   68.0    34   13.5   192    20.8   788.3    0.00 
 258   23:00   0.00   67.3    35   10.9   189    16.0   788.3    0.00 
 258   23:10   0.00   66.7    36    9.6   202    14.0   788.3    0.00 
 258   23:20   0.00   65.1    38    7.9   197    11.9   788.3    0.00 
 258   23:30   0.00   63.3    41    6.8   226    10.5   788.2    0.00 
 258   23:40   0.00   62.1    43    8.6   247    14.4   788.1    0.00 
 258   23:50   0.00   61.8    43    4.6   211     7.7   788.1    0.00 
 259    0:00   0.00   61.9    43    1.4   186     5.8   788.1    0.00 
 259    0:10   0.00   59.2    46    2.1   315     4.5   788.0    0.00 
 259    0:20   0.00   58.8    47    1.3   265     4.0   787.9    0.00 
 259    0:30   0.00   56.4    49    3.6   225     6.0   787.9    0.00 
 259    0:40   0.00   56.3    50    1.3    72     5.0   787.8    0.00 
 259    0:50   0.00   55.6    53    1.7   316     3.6   787.7    0.00 
 259    1:00   0.00   54.5    54    2.4   245     4.7   787.7    0.00 
 259    1:10   0.00   53.9    54    1.2   131     2.7   787.6    0.00 
 259    1:20   0.00   53.0    55    2.8   248     4.7   787.6    0.00 
 259    1:30   0.00   52.2    57    0.7   222     2.9   787.7    0.00 
 259    1:40   0.00   51.6    57    1.5   216     3.2   787.5    0.00 
 259    1:50   0.00   50.6    59    1.5   228     3.8   787.5    0.00 
 259    2:00   0.00   52.0    58    2.9   291     6.8   787.4    0.00 
 259    2:10   0.00   51.5    58    1.4   223     4.5   787.4    0.00 
 259    2:20   0.00   51.5    59    1.6   258     4.5   787.4    0.00 
 259    2:30   0.00   49.8    61    2.9   230     6.9   787.4    0.00 
 259    2:40   0.00   52.7    58    2.8   251     6.4   787.4    0.00 
 259    2:50   0.00   51.0    60    1.6   219     4.0   787.3    0.00 
 259    3:00   0.00   50.2    63    1.7   302     4.8   787.3    0.00 
 259    3:10   0.00   49.3    63    1.3   182     3.5   787.3    0.00 
 259    3:20   0.00   49.1    64    1.5    48     5.3   787.3    0.00 
 259    3:30   0.00   48.7    65    3.3   175     8.1   787.4    0.00 
 259    3:40   0.00   48.5    66    2.7   241     7.1   787.3    0.00 
 259    3:50   0.00   48.7    66    2.2   284     5.0   787.4    0.00 
 259    4:00   0.00   47.5    68    1.8   233     3.6   787.4    0.00 
 259    4:10   0.00   47.9    67    2.1   229     5.8   787.3    0.00 
 259    4:20   0.00   48.3    68    3.4   292     6.6   787.4    0.00 
 259    4:30   0.00   49.7    66    2.1   282     4.5   787.4    0.00 
 259    4:40   0.00   49.0    67    3.4   296     5.0   787.4    0.00 
 259    4:50   0.00   47.4    68    2.4   218     4.0   787.5    0.00 
 259    5:00   0.00   47.5    70    1.7   281     4.4   787.5    0.00 
 259    5:10   0.00   46.6    71    2.8   264     8.0   787.5    0.00 
 259    5:20   0.00   47.0    71    1.1   277     4.0   787.6    0.00 
 259    5:30   0.00   46.9    71    2.3   293     5.2   787.6    0.00 
 259    5:40   0.00   46.5    72    2.3    61     6.1   787.7    0.00 
 259    5:50   0.00   45.9    73    1.4   262     5.8   787.8    0.00 
 259    6:00   0.02   45.4    73    1.7   292     5.9   787.8    0.00 
 259    6:10   0.05   47.9    69    2.0   354     4.2   787.8    0.00 
 259    6:20   0.07   49.5    67    3.3   249     5.6   787.8    0.00 
 259    6:30   0.11   51.9    64    3.5   330     8.5   787.8    0.00 
 259    6:40   0.14   54.4    58    2.7   104     7.2   787.8    0.00 
 259    6:50   0.17   57.1    55    1.6   271     3.9   787.8    0.00 
 259    7:00   0.20   58.9    53    1.7   333     3.8   787.6    0.00 
 259    7:10   0.24   60.9    50    2.0    57     5.0   787.6    0.00 
 259    7:20   0.28   62.2    48    1.9    49     3.7   787.5    0.00 
 259    7:30   0.31   64.2    46    1.6    28     3.2   787.5    0.00 
 259    7:40   0.32   66.2    43    2.7    69    10.4   787.5    0.00 
 259    7:50   0.38   65.1    45    3.0    58     5.5   787.6    0.00 
 259    8:00   0.42   65.0    46    2.6    38     5.7   787.7    0.00 
 259    8:10   0.45   66.9    42    2.4    79     5.4   787.8    0.00 
 259    8:20   0.48   68.4    40    3.2    78     6.2   787.9    0.00 
 259    8:30   0.51   70.0    38    2.3    70     6.1   787.9    0.00 
 259    8:40   0.54   70.7    38    3.4    65     6.6   787.9    0.00 
 259    8:50   0.57   70.8    37    4.2    69     9.2   787.9    0.00 
 259    9:00   0.60   71.7    36    7.0    87    11.5   787.9    0.00 
 259    9:10   0.63   72.0    35    7.2    82    11.2   787.9    0.00 
 259    9:20   0.62   72.6    33    4.6    68     9.1   787.9    0.00 
 259    9:30   0.68   73.3    32    4.8    70    11.2   787.9    0.00 
 259    9:40   0.64   74.5    31    4.4    64     9.9   787.8    0.00 
 259    9:50   0.52   74.2    31    5.3    74    10.5   787.9    0.00 
 259   10:00   0.78   75.1    30    5.9    63     9.4   787.8    0.00 
 259   10:10   0.78   77.1    28    3.8    55     8.4   787.8    0.00 
 259   10:20   0.86   78.3    27    3.9    70     9.9   787.7    0.00 
 259   10:30   0.87   79.5    24    6.5   179    16.5   787.5    0.00 
 259   10:40   0.91   80.9    23    2.7    61    12.5   787.3    0.00 
 259   10:50   0.96   79.9    24    9.9   262    21.1   787.2    0.00 
 259   11:00   0.75   78.7    24    7.9   237    15.2   787.2    0.00 
 259   11:10   0.92   78.9    24    2.6   104     7.2   787.1    0.00 
 259   11:20   0.54   79.5    23    6.0   201    14.9   787.1    0.00 

Return to SNARL Reserve graphs page.


Western Regional Climate Center,wrcc@dri.edu